createdAt,value
2022-09-16T00:04:24.805Z,3.88
2022-09-16T00:09:18.901Z,3.10
2022-09-16T00:14:10.021Z,2.33
2022-09-16T00:19:03.258Z,2.67
2022-09-16T00:23:54.314Z,2.30
2022-09-16T00:28:46.981Z,5.07
2022-09-16T00:33:37.510Z,3.28
2022-09-16T00:38:28.183Z,1.88
2022-09-16T00:43:20.581Z,4.97
2022-09-16T00:48:20.818Z,2.70
2022-09-16T00:53:16.912Z,2.03
2022-09-16T00:58:15.345Z,4.07
2022-09-16T01:03:08.187Z,3.50
2022-09-16T01:08:01.855Z,3.53
2022-09-16T01:12:59.996Z,2.15
2022-09-16T01:18:10.105Z,1.70
2022-09-16T01:23:28.134Z,3.80
2022-09-16T01:29:01.296Z,2.03
2022-09-16T01:34:05.345Z,3.92
2022-09-16T01:39:16.003Z,2.50
2022-09-16T01:44:15.007Z,2.72
2022-09-16T01:49:16.628Z,3.37
2022-09-16T01:54:12.583Z,2.80
2022-09-16T01:59:07.676Z,7.03
2022-09-16T02:04:03.404Z,2.13
2022-09-16T02:09:00.027Z,3.63
2022-09-16T02:13:55.121Z,2.25
2022-09-16T02:18:51.947Z,0.70
2022-09-16T02:23:45.408Z,1.60
2022-09-16T02:28:43.182Z,1.38
2022-09-16T02:33:39.011Z,1.60
2022-09-16T02:38:34.844Z,2.42
2022-09-16T02:43:25.087Z,2.28
2022-09-16T02:48:25.452Z,1.75
2022-09-16T02:53:27.312Z,2.05
2022-09-16T02:58:16.991Z,1.90
2022-09-16T03:03:07.129Z,2.03
2022-09-16T03:08:03.055Z,2.00
2022-09-16T03:13:07.099Z,2.20
2022-09-16T03:18:16.173Z,1.77
2022-09-16T03:23:16.621Z,2.38
2022-09-16T03:28:13.010Z,4.40
2022-09-16T03:33:08.722Z,2.22
2022-09-16T03:38:01.565Z,0.98
2022-09-16T03:42:54.080Z,1.75
2022-09-16T03:47:43.858Z,0.83
2022-09-16T03:52:33.592Z,1.67
2022-09-16T03:57:23.141Z,1.60
2022-09-16T04:02:15.441Z,1.75
2022-09-16T04:07:05.142Z,1.87
2022-09-16T04:11:54.789Z,2.60
2022-09-16T04:16:45.512Z,1.50
2022-09-16T04:21:37.791Z,1.48
2022-09-16T04:26:27.571Z,2.67
2022-09-16T04:31:18.479Z,1.90
2022-09-16T04:36:12.210Z,2.10
2022-09-16T04:41:09.820Z,1.30
2022-09-16T04:45:59.549Z,3.10
2022-09-16T04:50:49.191Z,1.58
2022-09-16T04:55:38.863Z,3.15
2022-09-16T05:00:31.013Z,1.63
2022-09-16T05:05:20.610Z,2.50
2022-09-16T05:10:12.253Z,3.65
2022-09-16T05:15:01.865Z,1.80
2022-09-16T05:19:54.043Z,2.67
2022-09-16T05:24:44.522Z,3.50
2022-09-16T05:29:34.269Z,2.67
2022-09-16T05:34:28.649Z,3.33
2022-09-16T05:39:24.280Z,2.42
2022-09-16T05:44:15.020Z,3.43
2022-09-16T05:49:05.257Z,4.55
2022-09-16T05:53:56.272Z,3.00
2022-09-16T05:58:49.350Z,3.28
2022-09-16T06:03:41.554Z,2.33
2022-09-16T06:08:32.350Z,2.22
2022-09-16T06:13:22.799Z,3.13
2022-09-16T06:18:16.387Z,4.67
2022-09-16T06:23:06.215Z,3.03
2022-09-16T06:27:55.807Z,3.45
2022-09-16T06:32:45.640Z,2.60
2022-09-16T06:37:38.130Z,3.05
2022-09-16T06:42:28.526Z,3.85
2022-09-16T06:47:24.323Z,2.43
2022-09-16T06:52:14.256Z,1.50
2022-09-16T06:57:11.415Z,1.73
2022-09-16T07:02:02.170Z,2.15
2022-09-16T07:07:20.309Z,1.05
2022-09-16T07:12:02.801Z,0.88
2022-09-16T07:16:55.392Z,1.50
2022-09-16T07:21:45.206Z,1.30
2022-09-16T07:26:37.763Z,1.17
2022-09-16T07:31:29.996Z,1.75
2022-09-16T07:36:24.830Z,2.08
2022-09-16T07:41:16.131Z,1.90
2022-09-16T07:46:05.935Z,1.50
2022-09-16T07:50:59.960Z,2.35
2022-09-16T07:55:52.179Z,1.63
2022-09-16T08:00:42.034Z,1.27
2022-09-16T08:05:31.592Z,1.00
2022-09-16T08:10:23.619Z,1.10
2022-09-16T08:15:16.246Z,0.85
2022-09-16T08:20:09.629Z,0.90
2022-09-16T08:24:59.279Z,1.00
2022-09-16T08:29:49.051Z,1.23
2022-09-16T08:34:42.208Z,1.50
2022-09-16T08:39:31.771Z,1.63
2022-09-16T08:44:34.087Z,1.50
2022-09-16T08:49:33.509Z,2.10
2022-09-16T08:54:31.544Z,4.75
2022-09-16T08:59:29.131Z,2.00
2022-09-16T09:04:21.069Z,3.53
2022-09-16T09:09:44.643Z,3.08
2022-09-16T09:14:50.018Z,4.00
2022-09-16T09:19:53.343Z,2.25
2022-09-16T09:25:23.449Z,3.13
2022-09-16T09:30:21.608Z,2.30
2022-09-16T09:35:25.515Z,3.60
2022-09-16T09:40:22.017Z,2.80
2022-09-16T09:45:23.162Z,0.80
2022-09-16T09:50:22.757Z,1.25
2022-09-16T09:55:21.960Z,1.15
2022-09-16T10:00:19.305Z,1.02
2022-09-16T10:05:16.149Z,1.48
2022-09-16T10:10:17.137Z,2.80
2022-09-16T10:15:26.334Z,1.02
2022-09-16T10:20:29.716Z,3.00
2022-09-16T10:25:27.236Z,0.68
2022-09-16T10:35:34.427Z,1.23
2022-09-16T10:40:25.971Z,1.23
2022-09-16T10:45:29.457Z,2.00
2022-09-16T10:50:22.729Z,1.60
2022-09-16T10:55:25.082Z,2.13
2022-09-16T11:00:21.222Z,1.13
2022-09-16T11:05:24.086Z,4.95
2022-09-16T11:10:26.665Z,8.18
2022-09-16T11:15:33.107Z,1.85
2022-09-16T11:20:48.531Z,3.65
2022-09-16T11:25:47.740Z,2.63
2022-09-16T11:30:49.620Z,1.60
2022-09-16T11:36:20.126Z,1.30
2022-09-16T11:41:18.290Z,2.60
2022-09-16T11:46:18.839Z,0.32
2022-09-16T11:51:20.470Z,1.10
2022-09-16T11:56:17.241Z,1.30
2022-09-16T12:01:20.881Z,2.83
2022-09-16T12:06:15.461Z,2.95
2022-09-16T12:11:09.377Z,4.07
2022-09-16T20:31:30.992Z,9.35
2022-09-16T20:36:24.355Z,11.20
2022-09-16T20:41:16.291Z,3.78
2022-09-16T20:46:10.503Z,4.10
2022-09-16T20:51:00.140Z,5.38
2022-09-16T20:55:49.872Z,1.33
2022-09-16T21:00:39.451Z,1.65
2022-09-16T21:05:31.710Z,4.28
2022-09-16T21:10:23.142Z,4.50
2022-09-16T21:15:13.963Z,3.67
2022-09-16T21:20:04.191Z,5.55
2022-09-16T21:24:56.803Z,7.43
2022-09-16T21:29:46.392Z,10.15
2022-09-16T21:34:36.318Z,6.90
2022-09-16T21:39:25.908Z,5.68
2022-09-16T21:44:18.852Z,6.68
2022-09-16T21:49:08.772Z,7.13
2022-09-16T21:53:58.469Z,10.07
2022-09-16T21:58:49.672Z,7.45
2022-09-16T22:03:42.836Z,10.70
2022-09-16T22:08:32.693Z,8.82
2022-09-16T22:13:22.282Z,7.25
2022-09-16T22:18:12.047Z,5.22
2022-09-16T22:23:04.581Z,8.48
2022-09-16T22:32:43.944Z,7.50
2022-09-16T22:37:33.553Z,5.93
2022-09-16T22:42:25.900Z,7.80
2022-09-16T22:47:15.762Z,10.18
2022-09-16T22:52:05.844Z,6.38
2022-09-16T22:56:55.428Z,5.90
2022-09-16T23:01:47.709Z,4.25
2022-09-16T23:06:38.555Z,4.55
2022-09-16T23:11:32.439Z,5.18
2022-09-16T23:16:24.000Z,4.82
2022-09-16T23:21:17.713Z,6.18
2022-09-16T23:26:09.093Z,5.70
2022-09-16T23:30:58.843Z,7.07
2022-09-16T23:35:49.352Z,4.88
2022-09-16T23:40:42.917Z,6.53
2022-09-16T23:45:32.637Z,12.35
2022-09-16T23:50:22.533Z,8.77
2022-09-16T23:55:12.383Z,10.73
